createdAt,value
2018-02-21T00:01:27.470Z,92.70
2018-02-21T00:03:55.107Z,86.85
2018-02-21T00:06:22.716Z,91.05
2018-02-21T00:08:50.322Z,88.65
2018-02-21T00:11:17.919Z,85.40
2018-02-21T00:13:45.514Z,92.10
2018-02-21T00:16:13.912Z,86.22
2018-02-21T00:18:42.303Z,81.43
2018-02-21T00:21:09.927Z,90.62
2018-02-21T00:23:38.330Z,94.15
2018-02-21T00:26:05.902Z,87.57
2018-02-21T00:28:33.535Z,87.95
2018-02-21T00:31:01.901Z,91.28
2018-02-21T00:33:30.255Z,87.10
2018-02-21T00:35:57.894Z,80.45
2018-02-21T00:38:25.464Z,87.68
2018-02-21T00:40:53.035Z,86.70
2018-02-21T00:43:20.619Z,82.78
2018-02-21T00:45:48.959Z,89.47
2018-02-21T00:48:16.576Z,87.57
2018-02-21T00:50:44.175Z,84.62
2018-02-21T00:53:11.772Z,83.60
2018-02-21T00:55:40.137Z,74.37
2018-02-21T00:58:07.743Z,80.38
2018-02-21T01:00:35.339Z,73.47
2018-02-21T01:03:02.987Z,82.60
2018-02-21T01:05:30.570Z,79.35
2018-02-21T01:07:58.205Z,76.40
2018-02-21T01:10:25.788Z,78.05
2018-02-21T01:12:53.402Z,77.43
2018-02-21T01:15:21.007Z,72.72
2018-02-21T01:17:48.657Z,75.18
2018-02-21T01:20:16.299Z,78.22
2018-02-21T01:22:43.935Z,75.55
2018-02-21T01:25:12.324Z,72.82
2018-02-21T01:27:39.923Z,71.18
2018-02-21T01:30:07.583Z,78.50
2018-02-21T01:32:35.153Z,70.12
2018-02-21T01:35:02.746Z,80.10
2018-02-21T01:37:31.091Z,80.30
2018-02-21T01:39:58.707Z,75.18
2018-02-21T01:42:26.326Z,79.40
2018-02-21T01:44:53.903Z,73.68
2018-02-21T01:47:22.279Z,76.47
2018-02-21T01:49:50.610Z,67.47
2018-02-21T01:52:18.178Z,78.18
2018-02-21T01:54:45.806Z,77.90
2018-02-21T01:57:13.410Z,73.75
2018-02-21T01:59:41.023Z,77.10
2018-02-21T02:02:08.591Z,72.62
2018-02-21T02:04:36.211Z,68.03
2018-02-21T02:07:03.865Z,70.45
2018-02-21T02:09:31.455Z,71.97
2018-02-21T02:11:59.956Z,74.25
2018-02-21T02:14:27.598Z,72.87
2018-02-21T02:16:55.227Z,75.55
2018-02-21T02:19:22.815Z,77.65
2018-02-21T02:21:51.162Z,82.50
2018-02-21T02:24:18.750Z,68.53
2018-02-21T02:26:47.111Z,71.35
2018-02-21T02:29:15.508Z,72.82
2018-02-21T02:31:43.139Z,74.35
2018-02-21T02:34:10.734Z,75.78
2018-02-21T02:36:38.332Z,74.57
2018-02-21T02:39:17.832Z,74.95
2018-02-21T02:41:45.462Z,76.43
2018-02-21T02:44:13.069Z,72.75
2018-02-21T02:46:40.702Z,71.68
2018-02-21T02:49:09.945Z,78.35
2018-02-21T02:51:37.527Z,72.28
2018-02-21T02:54:05.166Z,71.35
2018-02-21T02:56:32.753Z,75.10
2018-02-21T02:59:00.363Z,82.53
2018-02-21T03:01:27.934Z,78.43
2018-02-21T03:03:55.537Z,72.57
2018-02-21T03:06:23.176Z,73.50
2018-02-21T03:08:50.815Z,78.00
2018-02-21T03:11:18.443Z,78.82
2018-02-21T03:13:46.801Z,71.03
2018-02-21T03:16:14.389Z,76.15
2018-02-21T03:18:42.774Z,71.95
2018-02-21T03:21:10.433Z,74.10
2018-02-21T03:23:37.978Z,69.55
2018-02-21T03:26:06.380Z,75.37
2018-02-21T03:28:33.973Z,74.07
2018-02-21T03:31:01.607Z,77.53
2018-02-21T03:33:29.188Z,73.72
2018-02-21T03:35:56.802Z,81.30
2018-02-21T03:38:25.139Z,71.25
2018-02-21T03:40:52.742Z,79.20
2018-02-21T03:43:21.098Z,80.22
2018-02-21T03:45:48.730Z,73.85
2018-02-21T03:48:16.348Z,77.40
2018-02-21T03:50:44.672Z,78.40
2018-02-21T03:53:12.260Z,69.47
2018-02-21T03:55:39.830Z,74.35
2018-02-21T03:58:08.231Z,77.68
2018-02-21T04:00:35.820Z,75.43
2018-02-21T04:03:03.426Z,75.47
2018-02-21T04:05:30.991Z,71.80
2018-02-21T04:07:58.610Z,76.97
2018-02-21T04:10:26.194Z,78.53
2018-02-21T04:12:53.797Z,76.53
2018-02-21T04:15:21.434Z,67.05
2018-02-21T04:17:49.783Z,78.97
2018-02-21T04:20:17.415Z,69.00
2018-02-21T04:22:44.987Z,69.37
2018-02-21T04:25:12.616Z,64.80
2018-02-21T04:27:40.207Z,70.07
2018-02-21T04:30:07.761Z,74.05
2018-02-21T04:32:35.354Z,71.50
2018-02-21T04:35:02.951Z,68.90
2018-02-21T04:37:30.550Z,68.12
2018-02-21T04:39:58.144Z,64.80
2018-02-21T04:42:25.747Z,73.87
2018-02-21T04:44:53.307Z,77.65
2018-02-21T04:47:21.696Z,70.05
2018-02-21T04:49:49.287Z,70.72
2018-02-21T04:52:16.888Z,67.12
2018-02-21T04:54:50.090Z,66.50
2018-02-21T04:57:18.478Z,64.25
2018-02-21T05:00:04.778Z,66.25
2018-02-21T05:02:32.359Z,67.25
2018-02-21T05:04:59.918Z,62.50
2018-02-21T05:07:27.553Z,70.00
2018-02-21T05:09:55.174Z,65.65
2018-02-21T05:12:22.767Z,69.55
2018-02-21T05:14:50.376Z,70.07
2018-02-21T05:17:18.004Z,77.40
2018-02-21T05:19:45.579Z,80.87
2018-02-21T05:22:13.159Z,77.62
2018-02-21T05:24:40.731Z,79.28
2018-02-21T05:27:08.333Z,80.40
2018-02-21T05:29:35.904Z,81.40
2018-02-21T05:32:03.509Z,82.45
2018-02-21T05:34:31.124Z,83.62
2018-02-21T05:36:58.716Z,85.62
2018-02-21T05:39:26.351Z,90.40
2018-02-21T05:41:53.941Z,79.62
2018-02-21T05:44:22.325Z,87.45
2018-02-21T05:46:49.949Z,89.07
2018-02-21T05:49:17.521Z,93.50
2018-02-21T05:51:45.139Z,88.07
2018-02-21T05:54:12.776Z,91.00
2018-02-21T05:56:41.192Z,86.97
2018-02-21T05:59:08.866Z,99.85
2018-02-21T06:04:36.166Z,91.18
2018-02-21T06:07:03.774Z,92.35
2018-02-21T06:09:31.379Z,82.93
2018-02-21T06:11:59.003Z,93.45
2018-02-21T06:14:26.580Z,87.70
2018-02-21T06:16:54.174Z,96.03
2018-02-21T06:19:21.783Z,99.13
2018-02-21T06:21:49.339Z,95.15
2018-02-21T06:24:16.950Z,85.20
2018-02-21T06:26:44.558Z,87.85
2018-02-21T06:29:12.129Z,82.97
2018-02-21T06:31:39.705Z,90.53
2018-02-21T06:34:07.303Z,78.80
2018-02-21T06:36:34.899Z,74.37
2018-02-21T06:39:02.551Z,78.75
2018-02-21T06:41:30.177Z,81.20
2018-02-21T06:43:57.770Z,80.18
2018-02-21T06:46:25.359Z,74.93
2018-02-21T06:48:52.932Z,72.28
2018-02-21T06:51:20.555Z,74.32
2018-02-21T06:53:48.151Z,65.50
2018-02-21T06:56:15.742Z,72.05
2018-02-21T06:58:43.347Z,63.85
2018-02-21T07:01:10.956Z,65.68
2018-02-21T07:03:38.609Z,71.07
2018-02-21T07:06:06.248Z,63.55
2018-02-21T07:08:33.911Z,68.47
2018-02-21T07:11:01.516Z,68.05
2018-02-21T07:13:29.903Z,66.40
2018-02-21T07:15:58.303Z,61.37
2018-02-21T07:18:25.899Z,66.87
2018-02-21T07:20:53.525Z,61.60
2018-02-21T07:23:21.109Z,58.72
2018-02-21T07:25:48.714Z,56.45
2018-02-21T07:28:16.352Z,59.20
2018-02-21T07:30:43.933Z,55.20
2018-02-21T07:33:11.558Z,64.90
2018-02-21T07:35:39.136Z,61.40
2018-02-21T07:38:06.787Z,64.43
2018-02-21T07:40:34.386Z,55.40
2018-02-21T07:43:02.777Z,59.85
2018-02-21T07:45:30.352Z,58.28
2018-02-21T07:47:57.951Z,61.08
2018-02-21T07:50:25.579Z,56.97
2018-02-21T07:52:53.224Z,59.03
2018-02-21T07:55:20.846Z,57.38
2018-02-21T07:57:48.511Z,58.97
2018-02-21T08:00:16.120Z,57.85
2018-02-21T08:02:43.730Z,51.22
2018-02-21T08:05:11.315Z,52.38
2018-02-21T08:07:39.659Z,51.53
2018-02-21T08:10:07.272Z,54.10
2018-02-21T08:12:34.835Z,53.42
2018-02-21T08:15:02.462Z,51.90
2018-02-21T08:17:30.098Z,48.45
2018-02-21T08:19:57.683Z,53.97
2018-02-21T08:22:26.083Z,51.85
2018-02-21T08:24:53.673Z,55.97
2018-02-21T08:27:21.278Z,53.83
2018-02-21T08:29:48.866Z,54.72
2018-02-21T08:32:16.472Z,55.53
2018-02-21T08:34:44.095Z,60.17
2018-02-21T08:37:11.643Z,59.85
2018-02-21T08:39:39.247Z,59.35
2018-02-21T08:42:06.871Z,58.50
2018-02-21T08:44:34.477Z,57.03
2018-02-21T08:47:02.059Z,61.55
2018-02-21T08:49:29.664Z,58.10
2018-02-21T08:51:57.231Z,56.20
2018-02-21T08:54:24.824Z,56.17
2018-02-21T08:56:52.435Z,59.88
2018-02-21T08:59:20.043Z,60.10
2018-02-21T09:01:47.628Z,59.47
2018-02-21T09:04:15.991Z,58.70
2018-02-21T09:06:43.586Z,60.67
2018-02-21T09:09:11.154Z,62.47
2018-02-21T09:11:38.742Z,61.10
2018-02-21T09:14:06.322Z,62.17
2018-02-21T09:16:33.957Z,69.15
2018-02-21T09:19:01.515Z,67.47
2018-02-21T09:21:29.147Z,64.75
2018-02-21T09:23:56.747Z,74.57
2018-02-21T09:26:24.338Z,65.45
2018-02-21T09:28:52.712Z,66.28
2018-02-21T09:31:20.254Z,68.53
2018-02-21T09:33:47.850Z,69.57
2018-02-21T09:36:16.260Z,62.55
2018-02-21T09:38:43.882Z,58.92
2018-02-21T09:41:12.245Z,62.35
2018-02-21T09:43:39.841Z,62.40
2018-02-21T09:46:07.435Z,67.18
2018-02-21T09:48:35.040Z,64.15
2018-02-21T09:51:03.431Z,63.90
2018-02-21T09:53:31.778Z,61.03
2018-02-21T09:55:59.404Z,70.82
2018-02-21T09:58:27.040Z,73.85
2018-02-21T10:00:54.704Z,76.10
2018-02-21T10:03:23.066Z,70.82
2018-02-21T10:05:51.408Z,78.43
2018-02-21T10:08:18.970Z,81.90
2018-02-21T10:10:46.546Z,75.45
2018-02-21T10:13:14.944Z,73.53
2018-02-21T10:15:43.331Z,76.97
2018-02-21T10:18:10.931Z,78.35
2018-02-21T10:20:38.552Z,76.70
2018-02-21T10:23:06.153Z,82.57
2018-02-21T10:25:33.725Z,78.90
2018-02-21T10:28:01.349Z,76.28
2018-02-21T10:30:28.931Z,77.95
2018-02-21T10:32:56.532Z,76.00
2018-02-21T10:35:24.892Z,77.70
2018-02-21T10:37:52.520Z,83.82
2018-02-21T10:40:20.116Z,72.87
2018-02-21T10:42:47.677Z,77.57
2018-02-21T10:45:15.274Z,85.30
2018-02-21T10:47:42.893Z,81.47
2018-02-21T10:50:10.499Z,83.50
2018-02-21T10:52:38.111Z,82.03
2018-02-21T10:55:05.712Z,75.70
2018-02-21T10:57:33.339Z,84.40
2018-02-21T11:00:00.916Z,78.00
2018-02-21T11:02:29.230Z,80.28
2018-02-21T11:04:56.921Z,83.28
2018-02-21T11:07:25.215Z,81.00
2018-02-21T11:09:52.823Z,76.45
2018-02-21T11:12:20.423Z,80.80
2018-02-21T11:14:48.055Z,75.80
2018-02-21T11:17:15.703Z,78.80
2018-02-21T11:19:43.308Z,75.85
2018-02-21T11:22:10.928Z,75.72
2018-02-21T11:24:38.498Z,78.75
2018-02-21T11:27:06.121Z,77.45
2018-02-21T11:29:34.497Z,74.43
2018-02-21T11:32:02.894Z,79.75
2018-02-21T11:34:30.501Z,78.93
2018-02-21T11:36:58.078Z,80.55
2018-02-21T11:39:25.639Z,84.25
2018-02-21T11:41:53.246Z,84.30
2018-02-21T11:44:20.840Z,83.62
2018-02-21T11:46:48.426Z,87.95
2018-02-21T11:49:16.792Z,85.32
2018-02-21T11:51:44.414Z,87.07
2018-02-21T11:54:12.035Z,84.93
2018-02-21T11:56:40.398Z,77.30
2018-02-21T11:59:07.995Z,85.30
2018-02-21T12:01:56.214Z,82.50
2018-02-21T12:04:24.582Z,86.00
2018-02-21T12:06:52.179Z,86.82
2018-02-21T12:09:19.778Z,84.07
2018-02-21T12:11:47.420Z,88.03
2018-02-21T12:14:15.027Z,87.75
2018-02-21T12:16:43.419Z,90.75
2018-02-21T12:19:11.755Z,94.47
2018-02-21T12:21:39.383Z,92.78
2018-02-21T12:24:06.938Z,87.90
2018-02-21T12:26:34.564Z,90.87
2018-02-21T12:29:02.953Z,91.82
2018-02-21T12:31:31.273Z,79.50
2018-02-21T12:33:58.955Z,92.28
2018-02-21T12:36:26.560Z,90.68
2018-02-21T12:38:59.747Z,96.65
2018-02-21T12:41:33.666Z,86.65
2018-02-21T12:44:01.273Z,87.68
2018-02-21T12:46:28.872Z,92.55
2018-02-21T12:48:57.270Z,87.95
2018-02-21T12:51:24.872Z,92.85
2018-02-21T12:53:52.467Z,89.85
2018-02-21T12:56:20.830Z,88.65
2018-02-21T12:58:48.453Z,86.75
2018-02-21T13:01:16.024Z,81.10
2018-02-21T13:03:43.626Z,83.12
2018-02-21T13:06:11.955Z,85.65
2018-02-21T13:08:39.523Z,83.03
2018-02-21T13:11:07.177Z,86.90
2018-02-21T13:13:34.756Z,86.20
2018-02-21T13:16:02.366Z,83.45
2018-02-21T13:18:29.982Z,81.10
2018-02-21T13:20:57.575Z,86.60
2018-02-21T13:23:25.931Z,84.55
2018-02-21T13:25:53.574Z,85.75
2018-02-21T13:28:21.172Z,82.12
2018-02-21T13:30:48.734Z,84.70
2018-02-21T13:33:16.332Z,82.10
2018-02-21T13:35:43.987Z,88.50
2018-02-21T13:38:11.608Z,82.37
2018-02-21T13:40:39.951Z,84.10
2018-02-21T13:43:07.534Z,79.05
2018-02-21T13:45:35.899Z,81.65
2018-02-21T13:48:03.446Z,78.20
2018-02-21T13:50:31.077Z,78.35
2018-02-21T13:53:01.794Z,90.12
2018-02-21T13:55:29.361Z,82.68
2018-02-21T13:58:03.878Z,88.37
2018-02-21T14:00:37.712Z,84.45
2018-02-21T14:03:06.074Z,80.05
2018-02-21T14:05:33.644Z,81.78
2018-02-21T14:08:01.252Z,78.40
2018-02-21T14:10:29.660Z,77.60
2018-02-21T14:12:57.269Z,73.62
2018-02-21T14:15:24.904Z,68.80
2018-02-21T14:17:52.502Z,70.82
2018-02-21T14:20:20.096Z,62.95
2018-02-21T14:22:51.767Z,67.68
2018-02-21T14:25:25.312Z,67.65
2018-02-21T14:27:52.937Z,66.72
2018-02-21T14:30:20.560Z,63.10
2018-02-21T14:32:48.885Z,69.60
2018-02-21T14:35:16.486Z,71.62
2018-02-21T14:37:44.917Z,68.35
2018-02-21T14:40:12.515Z,69.57
2018-02-21T14:42:40.141Z,61.13
2018-02-21T14:45:07.691Z,65.68
2018-02-21T14:47:35.332Z,66.03
2018-02-21T14:50:03.758Z,62.88
2018-02-21T14:52:31.411Z,63.85
2018-02-21T14:54:58.984Z,65.45
2018-02-21T14:57:26.571Z,61.50
2018-02-21T14:59:54.917Z,68.22
2018-02-21T15:02:22.580Z,64.60
2018-02-21T15:04:50.155Z,69.15
2018-02-21T15:07:17.797Z,60.92
2018-02-21T15:09:45.368Z,67.50
2018-02-21T15:12:12.938Z,58.50
2018-02-21T15:14:40.563Z,64.50
2018-02-21T15:17:08.127Z,62.60
2018-02-21T15:19:35.776Z,63.85
2018-02-21T15:22:03.380Z,58.10
2018-02-21T15:24:30.973Z,70.25
2018-02-21T15:26:58.574Z,71.12
2018-02-21T15:29:26.172Z,68.28
2018-02-21T15:31:54.510Z,66.93
2018-02-21T15:34:22.113Z,71.62
2018-02-21T15:36:50.476Z,68.85
2018-02-21T15:39:18.090Z,69.37
2018-02-21T15:41:45.719Z,72.28
2018-02-21T15:44:14.088Z,64.47
2018-02-21T15:46:42.412Z,72.93
2018-02-21T15:49:09.997Z,69.90
2018-02-21T15:51:37.574Z,68.60
2018-02-21T15:54:05.208Z,66.30
2018-02-21T15:56:32.779Z,70.28
2018-02-21T15:59:00.368Z,68.07
2018-02-21T16:01:28.772Z,69.22
2018-02-21T16:03:56.392Z,68.82
2018-02-21T16:06:23.987Z,69.25
2018-02-21T16:08:51.560Z,67.82
2018-02-21T16:11:19.184Z,62.45
2018-02-21T16:13:47.559Z,68.32
2018-02-21T16:16:15.923Z,74.15
2018-02-21T16:18:43.530Z,75.03
2018-02-21T16:21:11.107Z,65.55
2018-02-21T16:23:38.744Z,66.00
2018-02-21T16:26:06.333Z,68.30
2018-02-21T16:28:33.956Z,69.03
2018-02-21T16:31:02.329Z,75.25
2018-02-21T16:33:30.751Z,80.72
2018-02-21T16:35:58.361Z,66.65
2018-02-21T16:38:25.980Z,74.25
2018-02-21T16:40:53.624Z,71.28
2018-02-21T16:43:21.263Z,79.65
2018-02-21T16:45:48.879Z,72.97
2018-02-21T16:48:16.480Z,75.37
2018-02-21T16:50:44.164Z,73.78
2018-02-21T16:53:11.770Z,72.85
2018-02-21T16:55:39.407Z,75.35
2018-02-21T16:58:07.011Z,72.32
2018-02-21T17:00:35.412Z,68.87
2018-02-21T17:03:03.773Z,73.87
2018-02-21T17:05:32.183Z,71.30
2018-02-21T17:07:59.798Z,75.22
2018-02-21T17:10:28.140Z,73.22
2018-02-21T17:12:55.708Z,73.97
2018-02-21T17:15:23.344Z,73.28
2018-02-21T17:18:03.228Z,72.10
2018-02-21T17:20:30.851Z,71.78
2018-02-21T17:22:58.488Z,70.45
2018-02-21T17:25:26.851Z,73.28
2018-02-21T17:27:55.215Z,81.97
2018-02-21T17:30:22.846Z,77.47
2018-02-21T17:32:50.438Z,73.95
2018-02-21T17:35:18.021Z,75.90
2018-02-21T17:37:45.591Z,78.37
2018-02-21T17:40:13.210Z,73.87
2018-02-21T17:42:40.812Z,76.75
2018-02-21T17:45:08.394Z,74.43
2018-02-21T17:47:36.002Z,76.50
2018-02-21T17:50:04.375Z,75.45
2018-02-21T17:52:32.018Z,78.18
2018-02-21T17:54:59.624Z,77.12
2018-02-21T17:57:27.252Z,74.72
2018-02-21T17:59:54.959Z,80.15
2018-02-21T18:02:22.578Z,70.75
2018-02-21T18:04:50.172Z,79.18
2018-02-21T18:07:17.796Z,90.43
2018-02-21T18:18:27.572Z,84.50
2018-02-21T18:20:55.176Z,95.18
2018-02-21T18:23:23.604Z,107.53
2018-02-21T18:25:51.209Z,97.18
2018-02-21T18:28:31.211Z,95.82
2018-02-21T18:31:08.904Z,104.95
2018-02-21T18:36:44.211Z,93.82
2018-02-21T18:42:11.970Z,102.72
2018-02-21T18:44:39.560Z,96.28
2018-02-21T18:47:07.176Z,106.05
2018-02-21T18:49:34.762Z,110.88
2018-02-21T18:52:02.393Z,105.80
2018-02-21T18:54:30.008Z,105.78
2018-02-21T18:56:58.361Z,111.25
2018-02-21T18:59:25.981Z,105.22
2018-02-21T19:01:53.631Z,108.55
2018-02-21T19:04:21.260Z,119.20
2018-02-21T19:06:48.870Z,117.18
2018-02-21T19:09:16.477Z,114.30
2018-02-21T19:11:44.083Z,121.18
2018-02-21T19:14:11.684Z,116.60
2018-02-21T19:16:39.256Z,115.03
2018-02-21T19:19:06.916Z,116.75
2018-02-21T19:21:34.540Z,128.75
2018-02-21T19:24:02.160Z,121.28
2018-02-21T19:26:30.543Z,129.55
2018-02-21T19:28:58.907Z,121.45
2018-02-21T19:31:27.277Z,121.68
2018-02-21T19:33:54.859Z,119.43
2018-02-21T19:36:23.255Z,127.80
2018-02-21T19:38:57.579Z,130.15
2018-02-21T19:41:25.192Z,131.77
2018-02-21T19:46:48.174Z,141.02
2018-02-21T19:49:16.528Z,141.05
2018-02-21T19:51:44.166Z,146.80
2018-02-21T19:54:11.820Z,134.18
2018-02-21T19:56:39.448Z,128.75
2018-02-21T19:59:07.835Z,129.30
2018-02-21T20:01:35.459Z,136.12
2018-02-21T20:04:03.091Z,133.32
2018-02-21T20:06:30.683Z,126.18
2018-02-21T20:08:58.324Z,121.28
2018-02-21T20:11:25.898Z,108.82
2018-02-21T20:13:53.532Z,108.03
2018-02-21T20:16:21.140Z,114.20
2018-02-21T20:18:49.553Z,118.15
2018-02-21T20:21:17.196Z,115.00
2018-02-21T20:23:45.609Z,112.88
2018-02-21T20:26:13.251Z,110.37
2018-02-21T20:28:40.871Z,112.47
2018-02-21T20:31:13.957Z,111.20
2018-02-21T20:33:41.575Z,92.75
2018-02-21T20:36:09.183Z,97.55
2018-02-21T20:38:36.823Z,92.25
2018-02-21T20:41:04.475Z,91.85
2018-02-21T20:43:32.111Z,88.55
2018-02-21T20:45:59.744Z,93.50
2018-02-21T20:48:28.100Z,79.65
2018-02-21T20:50:55.708Z,92.07
2018-02-21T20:53:23.281Z,88.80
2018-02-21T20:55:50.945Z,83.07
2018-02-21T20:58:18.557Z,90.12
2018-02-21T21:00:46.946Z,85.03
2018-02-21T21:03:15.391Z,84.72
2018-02-21T21:05:42.945Z,84.57
2018-02-21T21:08:10.561Z,81.93
2018-02-21T21:10:45.918Z,86.63
2018-02-21T21:13:13.484Z,88.30
2018-02-21T21:15:41.079Z,84.65
2018-02-21T21:18:08.705Z,83.50
2018-02-21T21:20:36.292Z,80.70
2018-02-21T21:23:03.880Z,84.10
2018-02-21T21:25:32.267Z,93.55
2018-02-21T21:27:59.830Z,84.55
2018-02-21T21:30:27.442Z,73.68
2018-02-21T21:32:55.080Z,65.95
2018-02-21T21:35:22.652Z,81.70
2018-02-21T21:37:50.242Z,73.57
2018-02-21T21:40:17.847Z,70.20
2018-02-21T21:42:45.433Z,72.20
2018-02-21T21:45:13.032Z,73.00
2018-02-21T21:47:40.664Z,69.90
2018-02-21T21:50:08.285Z,74.45
2018-02-21T21:52:35.915Z,76.18
2018-02-21T21:55:03.534Z,74.15
2018-02-21T21:57:31.126Z,74.97
2018-02-21T21:59:58.731Z,71.50
2018-02-21T22:02:26.320Z,67.82
2018-02-21T22:04:53.895Z,70.22
2018-02-21T22:07:21.519Z,67.40
2018-02-21T22:09:49.090Z,74.10
2018-02-21T22:12:16.652Z,68.87
2018-02-21T22:14:44.207Z,67.80
2018-02-21T22:17:11.841Z,71.40
2018-02-21T22:19:39.471Z,69.62
2018-02-21T22:22:07.063Z,72.97
2018-02-21T22:24:34.687Z,70.20
2018-02-21T22:27:02.296Z,72.35
2018-02-21T22:29:29.883Z,76.80
2018-02-21T22:31:57.524Z,69.50
2018-02-21T22:34:25.115Z,71.55
2018-02-21T22:36:52.759Z,72.70
2018-02-21T22:39:20.392Z,72.85
2018-02-21T22:41:48.006Z,72.53
2018-02-21T22:44:15.631Z,79.30
2018-02-21T22:46:43.204Z,76.30
2018-02-21T22:49:10.822Z,77.43
2018-02-21T22:51:38.435Z,77.15
2018-02-21T22:54:06.044Z,75.15
2018-02-21T22:56:33.646Z,76.05
2018-02-21T22:59:01.239Z,72.10
2018-02-21T23:01:28.863Z,78.78
2018-02-21T23:03:56.483Z,73.30
2018-02-21T23:06:24.119Z,71.65
2018-02-21T23:08:51.730Z,78.10
2018-02-21T23:11:20.081Z,76.18
2018-02-21T23:13:48.452Z,76.93
2018-02-21T23:16:16.842Z,79.95
2018-02-21T23:18:44.452Z,76.07
2018-02-21T23:21:12.062Z,77.15
2018-02-21T23:23:39.669Z,81.65
2018-02-21T23:26:07.294Z,83.75
2018-02-21T23:28:34.903Z,79.70
2018-02-21T23:31:02.539Z,80.12
2018-02-21T23:33:30.160Z,80.93
2018-02-21T23:35:57.787Z,89.55
2018-02-21T23:38:25.410Z,87.70
2018-02-21T23:40:53.048Z,89.03
2018-02-21T23:43:20.643Z,82.90
2018-02-21T23:45:48.239Z,91.35
2018-02-21T23:48:15.830Z,78.90
2018-02-21T23:50:43.432Z,80.47
2018-02-21T23:53:11.043Z,82.03
2018-02-21T23:55:38.619Z,79.82
2018-02-21T23:58:06.243Z,88.80
